createdAt,value
2022-12-22T00:00:32.491Z,4.42
2022-12-22T00:03:18.665Z,4.42
2022-12-22T00:06:04.980Z,4.43
2022-12-22T00:08:51.101Z,4.44
2022-12-22T00:11:45.569Z,4.46
2022-12-22T00:14:31.581Z,4.46
2022-12-22T00:17:21.152Z,4.49
2022-12-22T00:20:07.151Z,4.47
2022-12-22T00:22:53.139Z,4.42
2022-12-22T00:25:39.034Z,4.44
2022-12-22T00:28:33.811Z,4.53
2022-12-22T00:31:19.954Z,4.49
2022-12-22T00:34:05.768Z,4.50
2022-12-22T00:36:51.702Z,4.45
2022-12-22T00:39:37.753Z,4.41
2022-12-22T00:42:23.554Z,4.45
2022-12-22T00:45:09.435Z,4.47
2022-12-22T00:47:55.646Z,4.47
2022-12-22T00:50:51.227Z,4.48
2022-12-22T00:53:37.671Z,4.45
2022-12-22T00:56:25.661Z,4.45
2022-12-22T00:59:15.698Z,4.46
2022-12-22T01:02:01.835Z,4.46
2022-12-22T01:04:47.577Z,4.47
2022-12-22T01:07:37.608Z,4.47
2022-12-22T01:10:24.093Z,4.48
2022-12-22T01:13:12.806Z,4.51
2022-12-22T01:15:58.952Z,4.46
2022-12-22T01:18:44.869Z,4.37
2022-12-22T01:21:30.918Z,4.32
2022-12-22T01:24:16.905Z,4.32
2022-12-22T01:27:02.754Z,4.32
2022-12-22T01:29:48.778Z,4.32
2022-12-22T01:32:34.729Z,4.33
2022-12-22T01:35:20.735Z,4.40
2022-12-22T01:38:06.509Z,4.37
2022-12-22T01:40:52.563Z,4.37
2022-12-22T01:43:49.874Z,4.37
2022-12-22T01:46:49.768Z,4.39
2022-12-22T01:50:00.191Z,4.37
2022-12-22T01:52:53.771Z,4.40
2022-12-22T01:55:43.847Z,4.43
2022-12-22T01:58:45.670Z,4.43
2022-12-22T02:01:31.575Z,4.44
2022-12-22T02:04:18.432Z,4.47
2022-12-22T02:07:05.656Z,4.49
2022-12-22T02:10:30.796Z,4.55
2022-12-22T02:13:41.615Z,4.58
2022-12-22T02:16:50.288Z,4.61
2022-12-22T02:20:02.983Z,4.63
2022-12-22T02:23:27.686Z,4.64
2022-12-22T02:26:57.662Z,4.67
2022-12-22T02:30:00.216Z,4.66
2022-12-22T02:32:46.111Z,4.63
2022-12-22T02:35:35.767Z,4.60
2022-12-22T02:39:12.266Z,4.60
2022-12-22T02:42:17.543Z,4.58
2022-12-22T02:45:52.396Z,4.62
2022-12-22T02:49:08.055Z,4.61
2022-12-22T02:52:04.069Z,4.62
2022-12-22T02:54:51.913Z,4.64
2022-12-22T02:57:38.993Z,4.68
2022-12-22T03:00:26.388Z,4.75
2022-12-22T03:03:12.641Z,4.77
2022-12-22T03:05:58.776Z,4.76
2022-12-22T03:08:44.728Z,4.76
2022-12-22T03:11:30.804Z,4.72
2022-12-22T03:14:16.872Z,4.71
2022-12-22T03:17:02.838Z,4.68
2022-12-22T03:19:49.021Z,4.65
2022-12-22T03:22:34.723Z,4.65
2022-12-22T03:25:20.683Z,4.63
2022-12-22T03:27:47.951Z,4.61
2022-12-22T03:30:15.469Z,4.60
2022-12-22T03:32:42.600Z,4.61
2022-12-22T03:35:09.990Z,4.64
2022-12-22T03:37:37.219Z,4.67
2022-12-22T03:40:05.322Z,4.67
2022-12-22T03:42:51.297Z,4.70
2022-12-22T03:45:37.274Z,4.70
2022-12-22T03:48:04.625Z,4.66
2022-12-22T03:50:31.864Z,4.64
2022-12-22T03:52:59.002Z,4.60
2022-12-22T03:55:26.572Z,4.58
2022-12-22T03:57:53.950Z,4.58
2022-12-22T04:00:21.257Z,4.59
2022-12-22T04:02:48.774Z,4.60
2022-12-22T04:05:16.404Z,4.60
2022-12-22T04:07:43.688Z,4.59
2022-12-22T04:10:29.577Z,4.61
2022-12-22T04:12:56.944Z,4.62
2022-12-22T04:15:32.209Z,4.61
2022-12-22T04:18:00.190Z,4.60
2022-12-22T04:20:28.371Z,4.61
2022-12-22T04:22:57.027Z,4.64
2022-12-22T04:25:26.093Z,4.62
2022-12-22T04:27:53.431Z,4.61
2022-12-22T04:30:21.128Z,4.62
2022-12-22T04:32:48.292Z,4.64
2022-12-22T04:35:15.630Z,4.62
2022-12-22T04:37:42.961Z,4.64
2022-12-22T04:40:10.623Z,4.61
2022-12-22T04:42:37.892Z,4.58
2022-12-22T04:45:06.346Z,4.58
2022-12-22T04:47:33.482Z,4.61
2022-12-22T04:50:00.687Z,4.64
2022-12-22T04:52:27.882Z,4.66
2022-12-22T04:54:55.059Z,4.66
2022-12-22T04:57:22.408Z,4.65
2022-12-22T04:59:49.541Z,4.63
2022-12-22T05:02:16.903Z,4.64
2022-12-22T05:04:44.110Z,4.61
2022-12-22T05:07:11.349Z,4.60
2022-12-22T05:09:38.585Z,4.60
2022-12-22T05:12:26.315Z,4.60
2022-12-22T05:14:53.827Z,4.59
2022-12-22T05:17:21.102Z,4.59
2022-12-22T05:19:48.447Z,4.60
2022-12-22T05:22:15.773Z,4.61
2022-12-22T05:24:42.926Z,4.61
2022-12-22T05:27:12.509Z,4.61
2022-12-22T05:29:39.661Z,4.60
2022-12-22T05:32:06.923Z,4.58
2022-12-22T05:34:34.254Z,4.60
2022-12-22T05:37:01.399Z,4.62
2022-12-22T05:39:28.615Z,4.65
2022-12-22T05:41:55.915Z,4.71
2022-12-22T05:44:23.077Z,4.72
2022-12-22T05:46:53.395Z,4.70
2022-12-22T05:49:21.302Z,4.68
2022-12-22T05:51:48.868Z,4.70
2022-12-22T05:54:16.249Z,4.71
2022-12-22T05:56:43.423Z,4.70
2022-12-22T05:59:11.946Z,4.70
2022-12-22T06:01:39.499Z,4.73
2022-12-22T06:04:06.880Z,4.70
2022-12-22T06:06:34.117Z,4.71
2022-12-22T06:09:01.342Z,4.71
2022-12-22T06:11:31.555Z,4.70
2022-12-22T06:13:58.724Z,4.72
2022-12-22T06:16:26.111Z,4.73
2022-12-22T06:18:53.443Z,4.74
2022-12-22T06:21:20.588Z,4.74
2022-12-22T06:23:48.347Z,4.72
2022-12-22T06:26:18.252Z,4.73
2022-12-22T06:28:45.613Z,4.77
2022-12-22T06:31:13.056Z,4.78
2022-12-22T06:33:40.374Z,4.77
2022-12-22T06:36:09.303Z,4.73
2022-12-22T06:38:36.518Z,4.72
2022-12-22T06:41:04.085Z,4.76
2022-12-22T06:43:31.475Z,4.78
2022-12-22T06:45:58.706Z,4.79
2022-12-22T06:48:25.995Z,4.78
2022-12-22T06:51:01.050Z,4.75
2022-12-22T06:53:28.296Z,4.77
2022-12-22T06:55:57.908Z,4.80
2022-12-22T06:58:31.030Z,4.78
2022-12-22T07:00:58.242Z,4.80
2022-12-22T07:03:25.911Z,4.80
2022-12-22T07:05:53.439Z,4.82
2022-12-22T07:08:23.215Z,4.81
2022-12-22T07:10:59.664Z,4.84
2022-12-22T07:13:34.002Z,4.84
2022-12-22T07:16:11.732Z,4.84
2022-12-22T07:18:45.450Z,4.82
2022-12-22T07:21:22.391Z,4.83
2022-12-22T07:23:52.213Z,4.86
2022-12-22T07:26:22.085Z,4.92
2022-12-22T07:28:55.826Z,4.99
2022-12-22T07:31:26.337Z,5.03
2022-12-22T07:34:28.059Z,5.04
2022-12-22T07:36:46.125Z,5.05
2022-12-22T07:39:28.652Z,5.00
2022-12-22T07:42:27.627Z,5.01
2022-12-22T07:45:00.236Z,5.01
2022-12-22T07:47:35.670Z,5.03
2022-12-22T07:50:25.952Z,5.05
2022-12-22T07:53:06.783Z,5.11
2022-12-22T07:55:40.753Z,5.11
2022-12-22T07:58:10.697Z,5.12
2022-12-22T08:00:42.683Z,5.24
2022-12-22T08:03:13.214Z,5.29
2022-12-22T08:05:56.725Z,5.41
2022-12-22T08:08:36.855Z,5.43
2022-12-22T08:11:12.547Z,5.49
2022-12-22T08:13:43.991Z,5.56
2022-12-22T08:16:18.201Z,5.59
2022-12-22T08:18:47.735Z,5.46
2022-12-22T08:21:16.711Z,5.56
2022-12-22T08:23:50.886Z,5.60
2022-12-22T08:26:49.343Z,5.62
2022-12-22T08:30:08.485Z,5.69
2022-12-22T08:32:40.558Z,5.65
2022-12-22T08:35:16.250Z,5.61
2022-12-22T08:37:59.019Z,5.59
2022-12-22T08:40:38.062Z,5.54
2022-12-22T08:43:13.715Z,5.48
2022-12-22T08:45:44.413Z,5.56
2022-12-22T08:48:34.008Z,5.64
2022-12-22T08:51:14.949Z,5.75
2022-12-22T08:54:05.894Z,5.82
2022-12-22T08:56:37.155Z,6.04
2022-12-22T08:59:14.097Z,6.07
2022-12-22T09:01:48.188Z,6.09
2022-12-22T09:04:25.008Z,6.12
2022-12-22T09:07:21.757Z,6.18
2022-12-22T09:09:54.858Z,6.10
2022-12-22T09:12:22.270Z,6.14
2022-12-22T09:14:55.646Z,6.28
2022-12-22T09:17:32.024Z,6.35
2022-12-22T09:20:06.634Z,6.30
2022-12-22T09:22:44.236Z,6.23
2022-12-22T09:25:18.475Z,6.27
2022-12-22T09:27:57.743Z,6.25
2022-12-22T09:30:36.979Z,6.32
2022-12-22T09:33:11.018Z,6.35
2022-12-22T09:35:46.347Z,6.47
2022-12-22T09:38:14.455Z,6.60
2022-12-22T09:40:52.855Z,6.59
2022-12-22T09:43:28.897Z,6.64
2022-12-22T09:46:31.132Z,6.63
2022-12-22T09:48:59.791Z,6.78
2022-12-22T09:52:04.115Z,6.81
2022-12-22T09:54:32.053Z,6.69
2022-12-22T09:57:07.933Z,6.73
2022-12-22T09:59:58.915Z,7.08
2022-12-22T10:03:04.358Z,7.10
2022-12-22T10:06:09.914Z,6.73
2022-12-22T10:08:46.984Z,6.73
2022-12-22T10:11:59.495Z,6.87
2022-12-22T10:14:51.009Z,6.93
2022-12-22T10:17:35.951Z,6.85
2022-12-22T10:20:36.067Z,6.90
2022-12-22T10:23:35.912Z,6.78
2022-12-22T10:26:37.771Z,6.68
2022-12-22T10:29:25.584Z,6.73
2022-12-22T10:32:22.479Z,6.91
2022-12-22T10:35:12.471Z,6.83
2022-12-22T10:37:43.771Z,6.72
2022-12-22T10:40:27.029Z,6.74
2022-12-22T10:43:05.025Z,6.73
2022-12-22T10:48:49.014Z,7.13
2022-12-22T10:51:29.250Z,7.44
2022-12-22T10:54:16.561Z,7.55
2022-12-22T10:57:32.187Z,7.66
2022-12-22T11:00:21.092Z,7.87
2022-12-22T11:03:06.960Z,7.97
2022-12-22T11:05:42.460Z,7.70
2022-12-22T11:08:26.646Z,7.68
2022-12-22T11:11:11.103Z,7.78
2022-12-22T11:14:20.691Z,7.88
2022-12-22T11:17:20.136Z,7.78
2022-12-22T11:21:03.775Z,7.58
2022-12-22T11:24:36.138Z,7.63
2022-12-22T11:27:44.058Z,7.59
2022-12-22T11:30:52.506Z,7.56
2022-12-22T11:34:31.942Z,7.52
2022-12-22T11:37:52.189Z,7.47
2022-12-22T11:40:53.346Z,7.55
2022-12-22T11:44:19.258Z,7.61
2022-12-22T11:47:26.981Z,7.83
2022-12-22T11:51:00.778Z,7.89
2022-12-22T11:54:11.930Z,7.99
2022-12-22T11:56:52.451Z,7.96
2022-12-22T12:00:08.233Z,8.27
2022-12-22T12:03:38.675Z,8.35
2022-12-22T12:07:03.143Z,8.43
2022-12-22T12:10:28.389Z,8.28
2022-12-22T12:13:29.985Z,8.40
2022-12-22T12:17:03.035Z,8.34
2022-12-22T12:20:20.595Z,8.39
2022-12-22T12:23:29.454Z,8.34
2022-12-22T12:26:34.205Z,8.07
2022-12-22T12:33:30.861Z,8.17
2022-12-22T12:36:26.651Z,8.03
2022-12-22T12:39:32.285Z,8.12
2022-12-22T12:42:46.723Z,8.22
2022-12-22T12:45:42.124Z,8.22
2022-12-22T12:48:26.523Z,8.17
2022-12-22T12:51:04.498Z,8.21
2022-12-22T12:53:32.702Z,8.19
2022-12-22T12:56:14.012Z,8.14
2022-12-22T12:58:59.076Z,8.09
2022-12-22T13:01:34.306Z,8.06
2022-12-22T13:04:13.157Z,8.01
2022-12-22T13:07:05.007Z,8.02
2022-12-22T13:10:33.364Z,8.10
2022-12-22T13:13:34.812Z,8.14
2022-12-22T13:16:02.425Z,8.12
2022-12-22T13:18:49.897Z,8.12
2022-12-22T13:21:54.856Z,8.09
2022-12-22T13:24:46.889Z,8.11
2022-12-22T13:27:22.717Z,8.10
2022-12-22T13:29:55.591Z,8.09
2022-12-22T13:32:34.080Z,8.08
2022-12-22T13:35:38.657Z,8.11
2022-12-22T13:38:34.411Z,8.12
2022-12-22T13:41:18.882Z,8.15
2022-12-22T13:44:01.217Z,8.10
2022-12-22T13:46:28.597Z,8.09
2022-12-22T13:49:00.298Z,8.06
2022-12-22T13:51:32.795Z,8.05
2022-12-22T13:54:18.016Z,8.03
2022-12-22T13:56:52.971Z,7.98
2022-12-22T13:59:43.767Z,7.94
2022-12-22T14:02:11.929Z,7.96
2022-12-22T14:05:03.721Z,7.88
2022-12-22T14:07:31.580Z,7.90
2022-12-22T14:09:59.347Z,7.89
2022-12-22T14:12:47.167Z,7.85
2022-12-22T14:15:20.156Z,7.83
2022-12-22T14:17:52.648Z,7.79
2022-12-22T14:20:32.290Z,7.73
2022-12-22T14:23:06.453Z,7.64
2022-12-22T14:25:44.605Z,7.57
2022-12-22T14:28:43.139Z,7.52
2022-12-22T14:31:13.619Z,7.45
2022-12-22T14:34:05.172Z,7.39
2022-12-22T14:36:46.120Z,7.36
2022-12-22T14:39:30.877Z,7.33
2022-12-22T14:42:12.133Z,7.31
2022-12-22T14:44:46.343Z,7.28
2022-12-22T14:47:16.070Z,7.30
2022-12-22T14:50:27.342Z,7.28
2022-12-22T14:53:00.517Z,7.27
2022-12-22T14:55:42.791Z,7.29
2022-12-22T14:58:29.735Z,7.32
2022-12-22T15:01:32.905Z,7.30
2022-12-22T15:04:04.297Z,7.28
2022-12-22T15:06:35.268Z,7.28
2022-12-22T15:09:09.061Z,7.24
2022-12-22T15:11:42.254Z,7.24
2022-12-22T15:14:18.430Z,7.24
2022-12-22T15:16:47.175Z,7.22
2022-12-22T15:19:18.575Z,7.24
2022-12-22T15:21:47.096Z,7.22
2022-12-22T15:24:18.359Z,7.08
2022-12-22T15:26:46.762Z,6.95
2022-12-22T15:29:14.564Z,6.82
2022-12-22T15:31:43.483Z,6.71
2022-12-22T15:34:29.287Z,6.62
2022-12-22T15:36:56.650Z,6.50
2022-12-22T15:39:24.656Z,6.38
2022-12-22T15:41:52.050Z,6.33
2022-12-22T15:44:19.518Z,6.28
2022-12-22T15:46:57.693Z,6.28
2022-12-22T15:49:29.579Z,6.21
2022-12-22T15:52:04.395Z,6.17
2022-12-22T15:54:36.378Z,6.02
2022-12-22T15:57:04.205Z,5.86
2022-12-22T15:59:31.479Z,5.88
2022-12-22T16:02:01.787Z,5.91
2022-12-22T16:04:30.071Z,5.87
2022-12-22T16:06:59.759Z,5.80
2022-12-22T16:09:38.146Z,5.80
2022-12-22T16:12:18.973Z,5.90
2022-12-22T16:14:52.102Z,5.79
2022-12-22T16:17:26.949Z,5.89
2022-12-22T16:19:54.470Z,6.19
2022-12-22T16:22:34.153Z,6.29
2022-12-22T16:25:07.064Z,6.21
2022-12-22T16:27:35.752Z,6.26
2022-12-22T16:30:05.367Z,6.10
2022-12-22T16:32:32.902Z,6.07
2022-12-22T16:35:09.062Z,5.91
2022-12-22T16:37:39.463Z,5.85
2022-12-22T16:40:11.393Z,6.03
2022-12-22T16:45:32.705Z,5.97
2022-12-22T16:48:05.939Z,5.95
2022-12-22T16:50:33.683Z,5.97
2022-12-22T16:53:09.465Z,5.93
2022-12-22T16:55:36.810Z,5.95
2022-12-22T16:58:12.907Z,5.95
2022-12-22T17:00:44.470Z,6.00
2022-12-22T17:03:28.218Z,6.08
2022-12-22T17:06:03.242Z,6.05
2022-12-22T17:08:39.320Z,6.06
2022-12-22T17:11:11.559Z,5.89
2022-12-22T17:13:41.543Z,5.70
2022-12-22T17:16:21.625Z,5.58
2022-12-22T17:18:49.409Z,5.57
2022-12-22T17:21:21.075Z,5.53
2022-12-22T17:23:54.596Z,5.72
2022-12-22T17:26:24.810Z,5.72
2022-12-22T17:28:53.159Z,5.74
2022-12-22T17:31:24.014Z,5.70
2022-12-22T17:33:51.456Z,5.50
2022-12-22T17:36:37.536Z,5.31
2022-12-22T17:39:05.071Z,5.18
2022-12-22T17:41:32.681Z,5.11
2022-12-22T17:44:00.038Z,5.10
2022-12-22T17:46:28.220Z,5.05
2022-12-22T17:48:55.411Z,4.97
2022-12-22T17:51:28.402Z,5.02
2022-12-22T17:53:58.860Z,4.93
2022-12-22T17:56:29.231Z,4.83
2022-12-22T17:58:56.569Z,4.70
2022-12-22T18:01:36.260Z,4.64
2022-12-22T18:04:04.022Z,4.47
2022-12-22T18:06:36.093Z,4.42
2022-12-22T18:09:05.410Z,4.51
2022-12-22T18:11:33.329Z,4.36
2022-12-22T18:14:00.628Z,4.28
2022-12-22T18:16:28.518Z,4.21
2022-12-22T18:18:55.882Z,4.12
2022-12-22T18:21:25.130Z,4.10
2022-12-22T18:23:52.867Z,4.19
2022-12-22T18:26:25.701Z,4.11
2022-12-22T18:28:54.536Z,4.07
2022-12-22T18:31:23.570Z,4.04
2022-12-22T18:33:51.419Z,3.97
2022-12-22T18:36:34.549Z,3.91
2022-12-22T18:39:04.656Z,3.88
2022-12-22T18:41:37.335Z,3.88
2022-12-22T18:44:07.556Z,3.79
2022-12-22T18:46:35.087Z,3.81
2022-12-22T18:49:05.873Z,3.71
2022-12-22T18:51:33.445Z,3.69
2022-12-22T18:54:00.903Z,3.66
2022-12-22T18:56:28.184Z,3.65
2022-12-22T18:58:55.543Z,3.63
2022-12-22T19:01:26.683Z,3.49
2022-12-22T19:03:57.031Z,3.42
2022-12-22T19:06:24.624Z,3.41
2022-12-22T19:08:52.198Z,3.52
2022-12-22T19:11:25.290Z,3.62
2022-12-22T19:13:53.264Z,3.60
2022-12-22T19:16:26.298Z,3.56
2022-12-22T19:18:53.759Z,3.45
2022-12-22T19:21:21.262Z,3.45
2022-12-22T19:23:48.446Z,3.51
2022-12-22T19:26:28.046Z,3.47
2022-12-22T19:29:02.005Z,3.61
2022-12-22T19:31:33.885Z,3.63
2022-12-22T19:34:05.845Z,3.52
2022-12-22T19:36:34.413Z,3.53
2022-12-22T19:39:05.223Z,3.53
2022-12-22T19:41:45.217Z,3.57
2022-12-22T19:44:27.569Z,3.67
2022-12-22T19:46:59.256Z,3.74
2022-12-22T19:49:28.713Z,3.78
2022-12-22T19:51:57.087Z,3.82
2022-12-22T19:54:25.226Z,3.86
2022-12-22T19:56:56.233Z,3.93
2022-12-22T19:59:50.103Z,3.88
2022-12-22T20:02:32.056Z,3.87
2022-12-22T20:05:01.152Z,3.86
2022-12-22T20:07:30.597Z,3.77
2022-12-22T20:09:57.899Z,3.74
2022-12-22T20:12:42.206Z,3.69
2022-12-22T20:15:37.062Z,3.64
2022-12-22T20:18:19.545Z,3.52
2022-12-22T20:21:00.457Z,3.31
2022-12-22T20:23:38.444Z,3.19
2022-12-22T20:26:18.012Z,3.20
2022-12-22T20:28:45.359Z,3.22
2022-12-22T20:31:16.615Z,3.17
2022-12-22T20:33:43.998Z,3.11
2022-12-22T20:36:23.350Z,3.13
2022-12-22T20:38:52.651Z,3.17
2022-12-22T20:41:21.297Z,3.16
2022-12-22T20:43:49.797Z,3.19
2022-12-22T20:46:37.580Z,3.22
2022-12-22T20:49:13.286Z,3.25
2022-12-22T20:51:40.770Z,3.25
2022-12-22T20:54:13.722Z,3.29
2022-12-22T20:56:44.898Z,3.37
2022-12-22T20:59:22.183Z,3.39
2022-12-22T21:01:52.827Z,3.48
2022-12-22T21:04:21.501Z,3.65
2022-12-22T21:06:55.846Z,3.66
2022-12-22T21:09:28.008Z,3.61
2022-12-22T21:11:55.224Z,3.70
2022-12-22T21:14:22.505Z,3.87
2022-12-22T21:16:52.257Z,3.92
2022-12-22T21:19:20.074Z,3.89
2022-12-22T21:21:47.831Z,3.83
2022-12-22T21:24:18.730Z,3.68
2022-12-22T21:26:55.289Z,3.60
2022-12-22T21:29:26.995Z,3.52
2022-12-22T21:31:57.289Z,3.43
2022-12-22T21:34:24.494Z,3.41
2022-12-22T21:37:00.010Z,3.52
2022-12-22T21:39:41.572Z,3.53
2022-12-22T21:42:17.948Z,3.55
2022-12-22T21:44:47.738Z,3.60
2022-12-22T21:47:20.611Z,3.67
2022-12-22T21:49:47.917Z,3.78
2022-12-22T21:52:15.478Z,3.83
2022-12-22T21:54:42.684Z,3.87
2022-12-22T21:57:16.241Z,3.91
2022-12-22T21:59:43.525Z,3.98
2022-12-22T22:02:17.103Z,4.01
2022-12-22T22:04:51.824Z,4.07
2022-12-22T22:07:21.942Z,4.11
2022-12-22T22:09:49.311Z,4.14
2022-12-22T22:12:36.727Z,4.08
2022-12-22T22:15:08.450Z,4.09
2022-12-22T22:17:35.859Z,4.09
2022-12-22T22:20:05.840Z,4.14
2022-12-22T22:22:33.156Z,4.15
2022-12-22T22:25:00.334Z,4.11
2022-12-22T22:27:27.638Z,4.12
2022-12-22T22:29:55.044Z,4.12
2022-12-22T22:32:22.381Z,4.12
2022-12-22T22:34:51.341Z,4.18
2022-12-22T22:37:19.775Z,4.20
2022-12-22T22:39:47.006Z,4.19
2022-12-22T22:42:14.553Z,4.17
2022-12-22T22:44:43.787Z,4.24
2022-12-22T22:47:12.004Z,4.30
2022-12-22T22:49:39.263Z,4.29
2022-12-22T22:52:06.775Z,4.27
2022-12-22T22:54:34.135Z,4.28
2022-12-22T22:57:01.402Z,4.27
2022-12-22T22:59:28.733Z,4.25
2022-12-22T23:01:56.038Z,4.25
2022-12-22T23:04:23.421Z,4.27
2022-12-22T23:06:50.688Z,4.29
2022-12-22T23:09:18.191Z,4.31
2022-12-22T23:11:45.765Z,4.35
2022-12-22T23:14:13.147Z,4.36
2022-12-22T23:16:40.425Z,4.39
2022-12-22T23:19:12.419Z,4.45
2022-12-22T23:21:39.893Z,4.43
2022-12-22T23:24:08.089Z,4.44
2022-12-22T23:26:36.032Z,4.43
2022-12-22T23:29:04.152Z,4.43
2022-12-22T23:31:35.227Z,4.40
2022-12-22T23:34:03.662Z,4.43
2022-12-22T23:36:31.830Z,4.46
2022-12-22T23:38:59.063Z,4.45
2022-12-22T23:41:26.528Z,4.47
2022-12-22T23:43:54.995Z,4.55
2022-12-22T23:46:22.822Z,4.49
2022-12-22T23:48:57.375Z,4.46
2022-12-22T23:51:28.501Z,4.44
2022-12-22T23:53:59.445Z,4.48
2022-12-22T23:56:28.160Z,4.51
2022-12-22T23:58:55.741Z,4.56
